Time;durP1;ratioP1;P1;durP2;ratioP2;P2;SDS_P1;SDS_P2;PMS_P1;PMS_P2;Temp;Humidity;BMP_temperature;BMP_pressure;BME280_temperature;BME280_humidity;BME280_pressure;Samples;Min_cycle;Max_cycle;Signal;HPM_P1;HPM_P2
2022/10/06 00:00:50;;;;;;;12.02;1.80;;;13.10;99.90;;;;;;5116123;27;20457;-80
2022/10/06 00:03:16;;;;;;;14.73;1.50;;;13.00;99.90;;;;;;5118892;27;20108;-81
2022/10/06 00:05:42;;;;;;;11.50;1.40;;;13.00;99.90;;;;;;5123777;27;20039;-81
2022/10/06 00:08:08;;;;;;;16.48;1.77;;;13.00;99.90;;;;;;5115755;27;20127;-81
2022/10/06 00:10:34;;;;;;;11.15;1.98;;;13.10;99.90;;;;;;5094131;27;20139;-80
2022/10/06 00:13:00;;;;;;;10.45;1.75;;;13.70;99.90;;;;;;5113912;27;20043;-81
2022/10/06 00:15:29;;;;;;;11.02;2.03;;;13.00;99.90;;;;;;5090189;27;20093;-81
2022/10/06 00:17:56;;;;;;;13.40;1.70;;;13.00;99.90;;;;;;5115746;27;20043;-80
2022/10/06 00:20:23;;;;;;;7.20;1.50;;;14.20;99.90;;;;;;5092577;27;20041;-80
2022/10/06 00:22:48;;;;;;;14.20;1.55;;;14.50;99.90;;;;;;5116260;27;20159;-80
2022/10/06 00:25:21;;;;;;;13.73;2.20;;;13.00;99.90;;;;;;5114006;27;20127;-82
2022/10/06 00:27:49;;;;;;;12.55;1.95;;;13.00;99.90;;;;;;5100749;27;20391;-81
2022/10/06 00:30:26;;;;;;;9.75;1.75;;;13.00;99.90;;;;;;5098495;27;20039;-81
2022/10/06 00:32:57;;;;;;;17.27;1.75;;;13.00;99.90;;;;;;5111939;27;20042;-80
2022/10/06 00:35:30;;;;;;;14.02;2.13;;;12.90;99.90;;;;;;5114520;27;20046;-80
2022/10/06 00:37:55;;;;;;;14.65;1.50;;;13.40;99.90;;;;;;5112238;27;20148;-81
2022/10/06 00:40:22;;;;;;;14.57;1.58;;;12.70;99.90;;;;;;5101289;28;20126;-80
2022/10/06 00:43:03;;;;;;;10.20;1.35;;;12.90;99.90;;;;;;5107050;27;20036;-80
2022/10/06 00:45:46;;;;;;;6.57;1.40;;;12.80;99.90;;;;;;5108463;27;20436;-81
2022/10/06 00:48:22;;;;;;;10.60;1.85;;;12.80;99.90;;;;;;5111902;27;20035;-80
2022/10/06 00:50:50;;;;;;;7.18;1.65;;;13.50;99.90;;;;;;5093132;28;20051;-80
2022/10/06 00:53:16;;;;;;;10.13;2.03;;;12.20;99.90;;;;;;5091072;27;20043;-81
2022/10/06 00:55:42;;;;;;;14.15;1.98;;;14.50;99.90;;;;;;5112651;27;20139;-81
2022/10/06 00:58:09;;;;;;;13.63;1.63;;;14.80;99.90;;;;;;5109492;27;20146;-80
2022/10/06 01:00:34;;;;;;;11.38;1.67;;;12.90;99.90;;;;;;5112279;27;20040;-81
2022/10/06 01:03:10;;;;;;;8.77;1.65;;;12.80;99.90;;;;;;5095373;28;20479;-81
2022/10/06 01:05:41;;;;;;;11.88;1.92;;;12.80;99.90;;;;;;5094353;28;20405;-81
2022/10/06 01:08:07;;;;;;;8.63;1.10;;;13.00;99.90;;;;;;5110224;27;20474;-80
2022/10/06 01:10:33;;;;;;;9.85;1.85;;;12.80;99.90;;;;;;5090132;28;20467;-81
2022/10/06 01:12:59;;;;;;;10.52;1.88;;;12.80;99.90;;;;;;5110466;27;20576;-81
2022/10/06 01:15:27;;;;;;;13.00;2.28;;;12.70;99.90;;;;;;5115315;27;20076;-80
2022/10/06 01:18:04;;;;;;;8.73;1.45;;;12.70;99.90;;;;;;5105601;28;20528;-81
2022/10/06 01:20:31;;;;;;;10.32;1.52;;;12.70;99.90;;;;;;5111859;27;20350;-81
2022/10/06 01:23:05;;;;;;;14.63;2.00;;;12.70;99.90;;;;;;5111367;27;20036;-80
2022/10/06 01:25:33;;;;;;;16.80;1.77;;;12.60;99.90;;;;;;5137738;27;20050;-80
2022/10/06 01:28:02;;;;;;;10.38;2.05;;;12.70;99.90;;;;;;5116941;27;20551;-81
2022/10/06 01:30:37;;;;;;;14.48;1.40;;;14.00;99.90;;;;;;5133958;27;20456;-80
2022/10/06 01:33:03;;;;;;;10.23;1.88;;;12.60;99.90;;;;;;5101267;27;20126;-80
2022/10/06 01:35:29;;;;;;;7.72;1.27;;;12.50;99.90;;;;;;5117679;27;20050;-81
2022/10/06 01:37:57;;;;;;;8.73;1.42;;;12.50;99.90;;;;;;5099519;27;20046;-81
2022/10/06 01:40:25;;;;;;;10.80;1.42;;;12.50;99.90;;;;;;5094783;28;20070;-81
2022/10/06 01:42:51;;;;;;;12.73;1.60;;;13.90;99.90;;;;;;5135322;27;20492;-80
2022/10/06 01:45:19;;;;;;;11.02;1.83;;;12.50;99.90;;;;;;5114437;28;20051;-81
2022/10/06 01:47:45;;;;;;;10.55;1.80;;;12.50;99.90;;;;;;5132627;27;20035;-80
2022/10/06 01:50:10;;;;;;;9.60;1.77;;;12.40;99.90;;;;;;5131120;27;20105;-81
2022/10/06 01:52:36;;;;;;;11.23;2.00;;;12.40;99.90;;;;;;5116782;27;20481;-80
2022/10/06 01:55:03;;;;;;;7.68;1.33;;;12.40;99.90;;;;;;5139537;27;20070;-81
2022/10/06 01:57:29;;;;;;;10.45;1.30;;;12.40;99.90;;;;;;5133570;27;20039;-81
2022/10/06 01:59:54;;;;;;;9.82;1.90;;;12.40;99.90;;;;;;5135163;27;20058;-81
2022/10/06 02:02:20;;;;;;;8.95;1.60;;;13.90;99.90;;;;;;5115263;27;20039;-81
2022/10/06 02:04:46;;;;;;;11.98;1.40;;;13.60;99.90;;;;;;5114381;27;20075;-81
2022/10/06 02:07:12;;;;;;;15.95;2.67;;;12.60;99.90;;;;;;5099641;27;20134;-81
2022/10/06 02:09:37;;;;;;;13.18;2.22;;;11.10;99.90;;;;;;5130189;27;20560;-81
2022/10/06 02:12:03;;;;;;;12.63;2.20;;;11.00;99.90;;;;;;5115595;27;20050;-81
2022/10/06 02:14:30;;;;;;;11.50;1.90;;;12.40;99.90;;;;;;5133623;27;20047;-81
2022/10/06 02:16:56;;;;;;;10.73;1.80;;;12.30;99.90;;;;;;5137711;27;20039;-81
2022/10/06 02:19:22;;;;;;;8.85;1.55;;;12.30;99.90;;;;;;5119273;27;20119;-81
2022/10/06 02:21:47;;;;;;;8.82;2.13;;;12.40;99.90;;;;;;5120650;27;20041;-81
2022/10/06 02:24:13;;;;;;;13.15;2.10;;;12.40;99.90;;;;;;5119395;27;20426;-81
2022/10/06 02:26:39;;;;;;;15.38;1.90;;;12.30;99.90;;;;;;5139128;27;20454;-81
2022/10/06 02:29:05;;;;;;;10.07;1.88;;;12.40;99.90;;;;;;5138305;27;20034;-80
2022/10/06 02:31:30;;;;;;;16.55;1.80;;;12.40;99.90;;;;;;5137361;27;20043;-80
2022/10/06 02:33:57;;;;;;;9.98;1.67;;;12.40;99.90;;;;;;5138776;27;21518;-80
2022/10/06 02:36:23;;;;;;;19.13;1.92;;;12.30;99.90;;;;;;5138423;27;20437;-80
2022/10/06 02:38:49;;;;;;;10.95;1.83;;;12.30;99.90;;;;;;5142355;27;20031;-80
2022/10/06 02:41:15;;;;;;;13.05;1.73;;;12.20;99.90;;;;;;5113242;27;20047;-80
2022/10/06 02:43:40;;;;;;;10.82;1.17;;;12.30;99.90;;;;;;5136086;27;20038;-80
2022/10/06 02:46:13;;;;;;;14.48;2.38;;;12.30;99.90;;;;;;5143298;27;20049;-80
2022/10/06 02:48:39;;;;;;;14.65;2.03;;;12.30;99.90;;;;;;5121741;27;20059;-80
2022/10/06 02:51:17;;;;;;;7.15;1.50;;;12.20;99.90;;;;;;5119684;27;20510;-80
2022/10/06 02:53:44;;;;;;;16.42;2.22;;;13.20;99.90;;;;;;5103972;27;20096;-80
2022/10/06 02:56:14;;;;;;;13.00;1.88;;;12.10;99.90;;;;;;5143000;27;20121;-80
2022/10/06 02:58:41;;;;;;;8.30;1.10;;;12.90;99.90;;;;;;5139609;27;20465;-80
2022/10/06 03:01:13;;;;;;;8.30;1.40;;;12.00;99.90;;;;;;5119227;27;20050;-80
2022/10/06 03:03:39;;;;;;;8.02;1.42;;;12.90;99.90;;;;;;5133805;27;20088;-80
2022/10/06 03:06:22;;;;;;;13.75;1.80;;;12.00;99.90;;;;;;5123588;27;20074;-80
2022/10/06 03:08:48;;;;;;;11.13;2.08;;;12.00;99.90;;;;;;5120290;27;20027;-81
2022/10/06 03:11:14;;;;;;;11.25;1.77;;;12.00;99.90;;;;;;5106443;27;20086;-80
2022/10/06 03:13:40;;;;;;;11.30;1.60;;;11.90;99.90;;;;;;5138263;27;20038;-80
2022/10/06 03:16:20;;;;;;;13.07;1.85;;;11.60;99.90;;;;;;5137663;27;20039;-80
2022/10/06 03:18:48;;;;;;;9.35;1.95;;;11.80;99.90;;;;;;5097354;27;20046;-81
2022/10/06 03:21:15;;;;;;;8.90;1.42;;;11.80;99.90;;;;;;5110440;27;20027;-80
2022/10/06 03:23:46;;;;;;;11.90;1.60;;;11.80;99.90;;;;;;5116831;27;20035;-81
2022/10/06 03:26:14;;;;;;;8.57;1.85;;;11.80;99.90;;;;;;5120765;27;20043;-80
2022/10/06 03:28:40;;;;;;;9.50;1.95;;;11.80;99.90;;;;;;5096164;27;20031;-80
2022/10/06 03:31:06;;;;;;;9.85;1.05;;;11.80;99.90;;;;;;5140622;27;20122;-80
2022/10/06 03:33:33;;;;;;;7.97;1.60;;;11.70;99.90;;;;;;5140786;27;20039;-81
2022/10/06 03:36:20;;;;;;;7.15;1.15;;;11.70;99.90;;;;;;5103116;27;20510;-82
2022/10/06 03:38:46;;;;;;;13.52;2.42;;;11.70;99.90;;;;;;5137031;27;20049;-81
2022/10/06 03:41:18;;;;;;;11.18;1.70;;;10.40;99.90;;;;;;5134992;27;22144;-81
2022/10/06 03:43:48;;;;;;;10.57;1.38;;;11.60;99.90;;;;;;5120895;27;20479;-81
2022/10/06 03:46:17;;;;;;;8.55;1.38;;;11.30;99.90;;;;;;5121200;27;20464;-81
2022/10/06 03:48:43;;;;;;;11.27;1.73;;;11.60;99.90;;;;;;5102590;27;20556;-81
2022/10/06 03:51:39;;;;;;;5.13;1.05;;;11.60;99.90;;;;;;5119152;27;20125;-81
2022/10/06 03:54:09;;;;;;;9.50;1.48;;;11.60;99.90;;;;;;5111981;27;20047;-82
2022/10/06 03:56:37;;;;;;;9.00;2.08;;;13.20;99.90;;;;;;5112573;27;20043;-82
2022/10/06 03:59:08;;;;;;;12.55;1.67;;;11.60;99.90;;;;;;5142175;27;20070;-81
2022/10/06 04:01:36;;;;;;;11.75;1.73;;;11.60;99.90;;;;;;5103180;27;20062;-82
2022/10/06 04:04:03;;;;;;;13.32;2.20;;;11.60;99.90;;;;;;5104473;27;20043;-82
2022/10/06 04:06:31;;;;;;;8.80;1.67;;;11.60;99.90;;;;;;5127122;27;20078;-81
2022/10/06 04:08:57;;;;;;;14.13;2.13;;;10.40;99.90;;;;;;5122510;27;20043;-81
2022/10/06 04:11:25;;;;;;;9.38;2.22;;;11.90;99.90;;;;;;5121916;27;20053;-81
2022/10/06 04:13:55;;;;;;;10.43;1.83;;;11.50;99.90;;;;;;5115623;27;20042;-81
2022/10/06 04:16:27;;;;;;;14.48;2.28;;;12.70;99.90;;;;;;5122981;27;20123;-81
2022/10/06 04:18:55;;;;;;;6.35;1.20;;;13.40;99.90;;;;;;5126457;27;20516;-81
2022/10/06 04:21:22;;;;;;;12.55;2.28;;;11.50;99.90;;;;;;5127418;27;20478;-81
2022/10/06 04:23:48;;;;;;;10.43;1.73;;;11.50;99.90;;;;;;5098615;27;20043;-81
2022/10/06 04:26:19;;;;;;;9.13;1.40;;;11.50;99.90;;;;;;5133462;27;20046;-81
2022/10/06 04:28:45;;;;;;;10.90;1.75;;;11.40;99.90;;;;;;5139120;27;20043;-81
2022/10/06 04:31:22;;;;;;;11.77;2.20;;;11.40;99.90;;;;;;5133363;27;20135;-81
2022/10/06 04:33:53;;;;;;;11.68;2.38;;;11.40;99.90;;;;;;5137432;27;20424;-81
2022/10/06 04:36:22;;;;;;;7.85;1.38;;;11.40;99.90;;;;;;5135479;27;20047;-82
2022/10/06 04:38:55;;;;;;;11.23;2.20;;;11.30;99.90;;;;;;5116041;27;20038;-82
2022/10/06 04:41:25;;;;;;;9.02;1.70;;;12.80;99.90;;;;;;5111616;27;20080;-81
2022/10/06 04:43:51;;;;;;;9.45;1.60;;;11.30;99.90;;;;;;5092286;27;21083;-81
2022/10/06 04:46:18;;;;;;;9.88;1.95;;;12.60;99.90;;;;;;5116276;27;20127;-82
2022/10/06 04:48:49;;;;;;;9.65;1.48;;;12.50;99.90;;;;;;5096802;27;20058;-81
2022/10/06 04:51:16;;;;;;;14.32;1.75;;;11.20;99.90;;;;;;5115863;27;20342;-81
2022/10/06 04:53:45;;;;;;;15.10;1.70;;;11.20;99.90;;;;;;5118112;27;20039;-81
2022/10/06 04:56:12;;;;;;;10.35;1.90;;;11.20;99.90;;;;;;5136752;27;20483;-81
2022/10/06 04:58:40;;;;;;;10.95;1.20;;;11.20;99.90;;;;;;5116841;27;20031;-81
2022/10/06 05:01:27;;;;;;;13.00;1.88;;;11.20;99.90;;;;;;5113213;27;20039;-81
2022/10/06 05:03:55;;;;;;;9.55;2.38;;;11.60;99.90;;;;;;5119971;27;20058;-78
2022/10/06 05:06:22;;;;;;;13.48;2.50;;;11.20;99.90;;;;;;5102714;27;20043;-79
2022/10/06 05:08:50;;;;;;;12.90;1.73;;;9.70;99.90;;;;;;4412843;27;10000722;-77
2022/10/06 05:11:16;;;;;;;9.85;1.65;;;11.10;99.90;;;;;;5122440;27;20079;-78
2022/10/06 05:13:42;;;;;;;12.30;2.10;;;11.10;99.90;;;;;;5141127;27;20031;-78
2022/10/06 05:16:11;;;;;;;15.43;1.48;;;11.10;99.90;;;;;;5108693;27;20038;-76
2022/10/06 05:18:37;;;;;;;10.85;1.85;;;11.70;99.90;;;;;;5124698;27;20039;-79
2022/10/06 05:21:10;;;;;;;11.57;2.13;;;11.20;99.90;;;;;;5120566;27;20042;-78
2022/10/06 05:23:37;;;;;;;13.73;2.25;;;11.10;99.90;;;;;;5104375;27;20047;-79
2022/10/06 05:26:04;;;;;;;14.40;1.95;;;11.10;99.90;;;;;;5112440;27;20316;-78
2022/10/06 05:28:30;;;;;;;13.85;2.03;;;11.10;99.90;;;;;;5096167;27;20038;-77
2022/10/06 05:31:10;;;;;;;14.88;1.88;;;11.10;99.90;;;;;;5135292;27;20103;-77
2022/10/06 05:33:36;;;;;;;16.40;1.90;;;11.10;99.90;;;;;;5102845;27;20038;-78
2022/10/06 05:36:14;;;;;;;13.80;1.67;;;11.10;99.90;;;;;;5140076;27;20118;-77
2022/10/06 05:38:39;;;;;;;13.95;1.60;;;11.10;99.90;;;;;;5120578;27;20421;-78
2022/10/06 05:41:20;;;;;;;10.98;2.05;;;11.10;99.90;;;;;;5123669;27;20050;-79
2022/10/06 05:43:47;;;;;;;12.32;2.10;;;12.00;99.90;;;;;;5112228;27;20043;-78
2022/10/06 05:46:19;;;;;;;15.13;2.08;;;11.10;99.90;;;;;;5094414;27;20043;-83
2022/10/06 05:48:49;;;;;;;19.83;2.58;;;11.10;99.90;;;;;;5127181;28;20035;-84
2022/10/06 05:51:17;;;;;;;17.10;2.60;;;11.10;99.90;;;;;;5095569;27;20096;-80
2022/10/06 05:53:43;;;;;;;15.93;2.13;;;12.90;99.90;;;;;;5118696;27;20503;-81
2022/10/06 05:56:12;;;;;;;12.63;1.92;;;11.10;99.90;;;;;;5148133;27;20118;-79
2022/10/06 05:58:39;;;;;;;11.27;1.92;;;11.10;99.90;;;;;;5108807;27;20046;-79
2022/10/06 06:01:09;;;;;;;16.90;2.25;;;11.10;99.90;;;;;;5107740;27;20180;-79
2022/10/06 06:03:35;;;;;;;13.38;2.92;;;11.10;99.90;;;;;;5101883;27;20158;-80
2022/10/06 06:06:02;;;;;;;15.95;2.05;;;12.70;99.90;;;;;;5128384;27;20473;-80
2022/10/06 06:08:31;;;;;;;14.68;1.95;;;11.30;99.90;;;;;;5152413;27;20034;-80
2022/10/06 06:11:06;;;;;;;13.02;2.28;;;11.20;99.90;;;;;;5131777;27;20432;-79
2022/10/06 06:13:32;;;;;;;9.52;1.60;;;12.10;99.90;;;;;;5133691;27;20066;-80
2022/10/06 06:16:03;;;;;;;21.50;2.58;;;12.20;99.90;;;;;;5130774;27;20074;-79
2022/10/06 06:18:35;;;;;;;15.73;2.42;;;11.30;99.90;;;;;;5133082;27;20117;-78
2022/10/06 06:21:04;;;;;;;14.27;3.28;;;11.30;99.90;;;;;;5127448;27;20043;-78
2022/10/06 06:23:37;;;;;;;15.80;2.15;;;11.30;99.90;;;;;;5132595;27;20066;-79
2022/10/06 06:26:06;;;;;;;12.32;1.75;;;11.30;99.90;;;;;;5146477;27;20134;-79
2022/10/06 06:28:32;;;;;;;22.30;3.03;;;11.30;99.90;;;;;;5129796;27;20474;-80
2022/10/06 06:31:04;;;;;;;9.35;1.88;;;11.30;99.90;;;;;;5122703;27;20121;-79
2022/10/06 06:33:30;;;;;;;11.38;2.25;;;11.30;99.90;;;;;;5113553;27;20031;-78
2022/10/06 06:35:58;;;;;;;11.55;1.90;;;12.10;99.90;;;;;;5127332;27;20045;-78
2022/10/06 06:38:23;;;;;;;16.13;2.30;;;11.30;99.90;;;;;;5122478;27;20566;-79
2022/10/06 06:40:49;;;;;;;13.48;2.00;;;11.30;99.90;;;;;;5121984;27;20114;-79
2022/10/06 06:43:15;;;;;;;9.40;1.92;;;11.50;99.90;;;;;;5116247;27;20058;-79
2022/10/06 06:45:40;;;;;;;12.82;2.38;;;11.30;99.90;;;;;;5135077;27;20470;-80
2022/10/06 06:48:12;;;;;;;10.77;2.40;;;11.30;99.90;;;;;;5130812;27;20082;-79
2022/10/06 06:50:37;;;;;;;9.75;2.13;;;11.30;99.90;;;;;;5105774;27;20047;-79
2022/10/06 06:53:03;;;;;;;13.18;3.38;;;11.30;99.90;;;;;;5105861;27;20031;-79
2022/10/06 06:55:29;;;;;;;20.85;2.60;;;11.30;99.90;;;;;;5149171;27;20504;-79
2022/10/06 06:57:54;;;;;;;11.77;1.83;;;13.00;99.90;;;;;;5148266;27;20035;-79
2022/10/06 07:00:22;;;;;;;12.98;1.88;;;11.40;99.90;;;;;;5132578;27;20401;-79
2022/10/06 07:02:54;;;;;;;14.63;2.72;;;11.40;99.90;;;;;;5123623;27;20083;-79
2022/10/06 07:05:23;;;;;;;12.00;1.90;;;11.50;99.90;;;;;;5138807;27;20043;-79
2022/10/06 07:07:49;;;;;;;10.38;1.98;;;11.50;99.90;;;;;;5113360;27;20055;-79
2022/10/06 07:10:14;;;;;;;15.57;1.92;;;11.60;99.90;;;;;;5146956;27;20045;-79
2022/10/06 07:12:42;;;;;;;17.83;2.00;;;11.60;99.90;;;;;;5148234;27;20039;-80
2022/10/06 07:26:06;;;;;;;8.18;1.58;;;11.90;99.90;;;;;;5124141;27;20486;-79
2022/10/06 07:28:31;;;;;;;11.70;1.52;;;11.90;99.90;;;;;;5140550;27;20039;-80
2022/10/06 07:30:59;;;;;;;11.38;1.77;;;12.00;99.90;;;;;;5121362;27;20466;-80
2022/10/06 07:33:28;;;;;;;15.27;2.55;;;12.10;99.90;;;;;;5104577;27;20035;-79
2022/10/06 07:35:53;;;;;;;19.55;2.70;;;13.10;99.90;;;;;;5128500;27;20053;-79
2022/10/06 07:38:24;;;;;;;15.68;1.42;;;12.10;99.90;;;;;;5145676;27;20389;-79
2022/10/06 07:40:55;;;;;;;14.70;2.10;;;12.20;99.90;;;;;;5104114;27;20117;-79
2022/10/06 07:43:21;;;;;;;11.70;2.40;;;12.20;99.90;;;;;;5147361;27;20031;-79
2022/10/06 07:45:48;;;;;;;10.50;2.25;;;12.30;99.90;;;;;;5122668;27;20089;-79
2022/10/06 07:48:22;;;;;;;19.33;2.30;;;12.30;99.90;;;;;;5125552;27;20509;-80
2022/10/06 07:50:51;;;;;;;16.50;1.83;;;12.30;99.90;;;;;;5131920;27;20043;-80
2022/10/06 07:53:17;;;;;;;17.15;2.05;;;12.40;99.90;;;;;;5115777;27;20043;-80
2022/10/06 07:55:45;;;;;;;11.65;2.70;;;12.50;99.90;;;;;;5144268;27;20565;-80
2022/10/06 07:58:13;;;;;;;17.73;2.85;;;13.60;99.90;;;;;;5122606;27;20038;-80
2022/10/06 08:00:43;;;;;;;16.75;1.73;;;12.60;99.90;;;;;;5148137;27;20035;-80
2022/10/06 08:03:10;;;;;;;10.68;1.67;;;12.90;99.90;;;;;;5120880;27;20125;-80
2022/10/06 08:05:39;;;;;;;10.48;1.83;;;13.70;99.90;;;;;;5141267;27;20042;-81
2022/10/06 08:08:05;;;;;;;9.93;1.75;;;13.60;99.90;;;;;;5139014;27;20091;-79
2022/10/06 08:10:31;;;;;;;13.98;2.75;;;13.30;99.90;;;;;;5098263;27;20498;-80
2022/10/06 08:12:56;;;;;;;17.60;2.10;;;13.20;99.90;;;;;;5131077;27;20074;-81
2022/10/06 08:15:22;;;;;;;13.23;1.85;;;12.90;99.90;;;;;;5130882;27;20133;-80
2022/10/06 08:17:47;;;;;;;14.15;2.08;;;13.00;99.90;;;;;;5109298;27;20055;-80
2022/10/06 08:20:13;;;;;;;13.48;2.25;;;13.10;99.90;;;;;;5106491;27;20078;-79
2022/10/06 08:22:39;;;;;;;20.83;3.80;;;13.20;99.90;;;;;;5150335;27;20516;-81
2022/10/06 08:25:07;;;;;;;15.00;2.55;;;13.20;99.90;;;;;;5149311;27;20459;-79
2022/10/06 08:27:34;;;;;;;11.07;2.30;;;13.30;99.90;;;;;;5097256;27;20043;-81
2022/10/06 08:30:00;;;;;;;11.07;2.03;;;13.30;99.90;;;;;;5134305;27;20050;-79
2022/10/06 08:32:25;;;;;;;12.00;1.80;;;13.30;99.90;;;;;;5118230;27;20034;-80
2022/10/06 08:34:51;;;;;;;8.88;0.98;;;13.40;99.90;;;;;;5121825;27;20187;-80
2022/10/06 08:37:22;;;;;;;10.45;2.33;;;14.50;99.90;;;;;;5142086;27;20078;-79
2022/10/06 08:39:52;;;;;;;9.38;1.67;;;13.90;99.90;;;;;;5095591;27;20047;-79
2022/10/06 08:42:41;;;;;;;11.23;1.67;;;13.50;99.90;;;;;;5117606;27;20048;-80
2022/10/06 08:45:30;;;;;;;17.60;2.25;;;13.70;99.90;;;;;;5108250;27;20043;-80
2022/10/06 08:48:01;;;;;;;11.65;1.30;;;13.60;99.90;;;;;;5118844;27;20046;-80
2022/10/06 08:50:31;;;;;;;12.80;1.95;;;14.70;99.90;;;;;;5127009;27;20039;-81
2022/10/06 08:53:34;;;;;;;11.23;1.25;;;13.70;99.90;;;;;;5112296;27;20051;-80
2022/10/06 08:56:16;;;;;;;9.95;1.75;;;13.80;99.90;;;;;;5114274;27;20408;-80
2022/10/06 08:58:54;;;;;;;9.93;1.55;;;13.90;99.90;;;;;;5103592;27;20099;-80
2022/10/06 09:01:23;;;;;;;11.85;1.98;;;13.80;99.90;;;;;;5126190;27;20060;-81
2022/10/06 09:03:52;;;;;;;16.92;2.15;;;13.90;99.90;;;;;;5100798;27;20045;-80
2022/10/06 09:06:22;;;;;;;9.35;2.28;;;13.90;99.90;;;;;;5124952;27;20043;-80
2022/10/06 09:08:55;;;;;;;14.18;1.67;;;13.90;99.90;;;;;;5129428;27;20039;-80
2022/10/06 09:12:05;;;;;;;9.95;1.42;;;14.00;99.90;;;;;;5132302;27;20078;-80
2022/10/06 09:14:39;;;;;;;12.23;1.50;;;14.00;99.90;;;;;;5129939;27;20051;-81
2022/10/06 09:17:11;;;;;;;15.10;1.83;;;14.00;99.90;;;;;;5141339;27;20023;-81
2022/10/06 09:19:46;;;;;;;10.57;1.58;;;14.10;99.90;;;;;;5113997;27;20084;-80
2022/10/06 09:22:18;;;;;;;12.93;2.53;;;14.10;99.90;;;;;;5120413;27;20033;-81
2022/10/06 09:24:48;;;;;;;8.82;1.17;;;14.20;99.90;;;;;;5127794;27;20149;-81
2022/10/06 09:27:21;;;;;;;9.95;1.75;;;14.70;99.90;;;;;;5121282;27;20039;-80
2022/10/06 09:29:48;;;;;;;8.38;1.58;;;14.30;99.90;;;;;;5139479;27;20036;-81
2022/10/06 09:32:19;;;;;;;12.43;1.55;;;14.40;99.90;;;;;;5115417;27;20322;-80
2022/10/06 09:34:54;;;;;;;9.48;1.98;;;14.30;99.90;;;;;;5121510;27;20444;-82
2022/10/06 09:37:20;;;;;;;9.35;1.63;;;14.40;99.90;;;;;;5100847;27;20593;-83
2022/10/06 09:39:49;;;;;;;8.13;1.58;;;14.40;99.90;;;;;;5126450;27;20086;-82
2022/10/06 09:42:20;;;;;;;9.20;1.15;;;14.50;99.90;;;;;;5106653;27;20058;-82
2022/10/06 09:45:06;;;;;;;11.68;1.98;;;15.50;99.90;;;;;;5105220;27;20049;-82
2022/10/06 09:47:35;;;;;;;12.25;1.52;;;14.60;99.90;;;;;;5129408;27;20039;-82
2022/10/06 09:50:15;;;;;;;9.63;1.58;;;14.60;99.90;;;;;;5143562;27;20046;-81
2022/10/06 09:52:43;;;;;;;7.68;1.33;;;14.60;99.90;;;;;;5123739;27;20551;-82
2022/10/06 09:55:17;;;;;;;12.20;1.55;;;14.70;99.90;;;;;;5145611;27;20103;-81
2022/10/06 09:57:52;;;;;;;13.95;1.88;;;14.70;99.90;;;;;;5097430;28;20054;-82
2022/10/06 10:00:35;;;;;;;6.68;1.20;;;14.70;99.90;;;;;;5103827;27;20039;-86
2022/10/06 10:03:07;;;;;;;5.78;1.50;;;14.70;99.90;;;;;;5128246;27;20064;-82
2022/10/06 10:05:35;;;;;;;9.18;1.48;;;14.70;99.90;;;;;;5111109;27;20047;-82
2022/10/06 10:08:17;;;;;;;6.97;1.50;;;14.70;99.90;;;;;;5129539;27;20119;-83
2022/10/06 10:10:42;;;;;;;10.23;1.77;;;14.80;99.90;;;;;;5127066;27;20042;-81
2022/10/06 10:13:25;;;;;;;8.65;1.33;;;15.60;99.90;;;;;;5118651;27;20027;-82
2022/10/06 10:15:54;;;;;;;10.95;1.85;;;14.90;99.90;;;;;;5124847;27;20449;-82
2022/10/06 10:18:25;;;;;;;8.13;1.02;;;15.50;99.90;;;;;;5122524;27;20035;-81
2022/10/06 10:20:59;;;;;;;14.75;1.38;;;15.70;99.90;;;;;;5149901;27;20045;-81
2022/10/06 10:23:54;;;;;;;7.78;1.70;;;15.10;99.90;;;;;;5122686;27;20046;-81
2022/10/06 10:26:44;;;;;;;;;;;15.10;99.90;;;;;;5118272;27;20055;-82
2022/10/06 10:29:46;;;;;;;6.50;1.33;;;15.20;99.90;;;;;;5131743;27;19930;-82
2022/10/06 10:32:49;;;;;;;11.25;1.58;;;15.20;99.90;;;;;;5101069;27;20031;-82
2022/10/06 10:35:23;;;;;;;11.63;1.45;;;15.30;99.90;;;;;;5117618;28;20039;-82
2022/10/06 10:37:58;;;;;;;9.57;1.35;;;15.30;99.90;;;;;;5116858;27;20035;-81
2022/10/06 10:40:32;;;;;;;8.18;1.17;;;15.30;99.90;;;;;;5127612;27;20431;-82
2022/10/06 10:43:10;;;;;;;9.10;1.15;;;16.00;99.90;;;;;;5104744;27;20043;-82
2022/10/06 10:45:43;;;;;;;8.85;1.42;;;15.40;99.90;;;;;;5104743;27;20043;-80
2022/10/06 10:48:21;;;;;;;8.30;1.05;;;15.90;99.90;;;;;;5113426;27;20027;-81
2022/10/06 10:50:47;;;;;;;8.40;1.50;;;15.50;99.90;;;;;;5126457;27;20053;-81
2022/10/06 10:53:24;;;;;;;10.68;1.40;;;15.60;99.90;;;;;;5108009;27;20035;-81
2022/10/06 10:55:52;;;;;;;6.65;1.70;;;15.70;99.90;;;;;;5149833;27;20046;-81
2022/10/06 10:58:37;;;;;;;6.95;1.55;;;16.90;99.90;;;;;;5121631;27;20031;-80
2022/10/06 11:01:09;;;;;;;9.35;1.65;;;15.90;99.90;;;;;;5120353;27;20050;-81
2022/10/06 11:03:34;;;;;;;7.60;1.45;;;15.90;99.90;;;;;;5133418;27;20430;-82
2022/10/06 11:06:13;;;;;;;9.77;1.77;;;16.10;99.90;;;;;;5124008;27;20034;-82
2022/10/06 11:09:12;;;;;;;8.30;0.80;;;16.10;99.90;;;;;;5145677;27;20585;-82
2022/10/06 11:11:57;;;;;;;9.88;1.45;;;16.10;99.90;;;;;;5097454;27;20083;-82
2022/10/06 11:14:32;;;;;;;4.85;0.93;;;16.20;99.90;;;;;;5101832;27;20096;-81
2022/10/06 11:17:09;;;;;;;4.40;1.60;;;16.30;99.90;;;;;;5123221;27;20166;-81
2022/10/06 11:19:50;;;;;;;12.38;0.90;;;17.60;99.90;;;;;;5118233;27;20039;-81
2022/10/06 11:22:40;;;;;;;5.63;1.02;;;16.40;99.90;;;;;;5102344;27;20054;-80
2022/10/06 11:25:06;;;;;;;8.73;1.20;;;16.50;99.90;;;;;;5098708;27;20043;-80
2022/10/06 11:27:39;;;;;;;5.78;0.82;;;16.60;99.90;;;;;;5106553;27;20042;-82
2022/10/06 11:30:13;;;;;;;7.45;0.77;;;16.60;99.90;;;;;;5113599;27;20522;-81
2022/10/06 11:33:24;;;;;;;3.47;0.65;;;16.70;99.90;;;;;;5124336;27;20039;-79
2022/10/06 11:35:50;;;;;;;4.68;0.85;;;16.60;99.90;;;;;;5120237;27;20085;-81
2022/10/06 11:38:36;;;;;;;3.33;0.70;;;17.20;99.90;;;;;;5137237;27;20062;-81
2022/10/06 11:41:23;;;;;;;7.07;0.95;;;16.70;99.90;;;;;;5119901;27;20073;-79
2022/10/06 11:44:25;;;;;;;5.90;0.85;;;16.70;99.90;;;;;;5140263;27;20744;-78
2022/10/06 11:46:58;;;;;;;8.02;1.63;;;16.90;99.90;;;;;;5107309;27;20054;-81
2022/10/06 11:49:27;;;;;;;5.38;0.70;;;16.90;99.90;;;;;;5118889;27;20134;-81
2022/10/06 11:52:16;;;;;;;8.13;1.27;;;17.40;99.90;;;;;;5139115;27;20058;-79
2022/10/06 11:54:54;;;;;;;8.50;1.17;;;17.10;99.90;;;;;;5102594;27;20130;-80
2022/10/06 11:57:24;;;;;;;6.43;1.00;;;17.10;99.90;;;;;;5119983;27;20047;-80
2022/10/06 12:00:09;;;;;;;8.07;0.70;;;17.10;99.90;;;;;;5120930;27;20042;-79
2022/10/06 12:02:40;;;;;;;11.77;1.35;;;17.10;99.90;;;;;;5137081;27;20126;-81
2022/10/06 12:05:08;;;;;;;6.15;0.93;;;16.90;99.90;;;;;;5101852;27;20061;-82
2022/10/06 12:07:53;;;;;;;9.63;1.25;;;17.50;99.90;;;;;;5118100;27;20043;-81
2022/10/06 12:10:28;;;;;;;9.30;1.30;;;16.50;99.90;;;;;;5117860;27;20049;-79
2022/10/06 12:13:12;;;;;;;9.40;0.88;;;16.30;99.90;;;;;;5122742;27;20057;-80
2022/10/06 12:15:51;;;;;;;7.15;1.15;;;16.40;99.90;;;;;;5119505;27;20043;-81
2022/10/06 12:18:39;;;;;;;7.97;1.13;;;16.40;99.90;;;;;;5106128;27;20046;-82
2022/10/06 12:21:33;;;;;;;5.55;0.90;;;16.50;99.90;;;;;;5141525;27;20091;-80
2022/10/06 12:24:23;;;;;;;6.20;1.27;;;16.70;99.90;;;;;;5100526;27;20035;-82
2022/10/06 12:27:15;;;;;;;6.00;1.08;;;16.90;99.90;;;;;;5122106;27;20075;-86
2022/10/06 12:29:53;;;;;;;4.68;0.73;;;17.10;99.90;;;;;;5122372;27;20046;-79
2022/10/06 12:32:51;;;;;;;7.07;0.93;;;17.70;99.90;;;;;;5119041;27;20064;-80
2022/10/06 12:35:23;;;;;;;6.82;1.35;;;17.30;99.90;;;;;;5122265;27;20541;-78
2022/10/06 12:37:51;;;;;;;8.48;0.80;;;17.10;99.90;;;;;;5122571;27;20530;-79
2022/10/06 12:40:46;;;;;;;7.57;1.13;;;17.10;99.90;;;;;;5119067;27;20042;-81
2022/10/06 12:43:13;;;;;;;3.38;0.50;;;16.90;99.90;;;;;;5097269;27;20405;-80
2022/10/06 12:45:42;;;;;;;12.55;1.35;;;16.70;99.90;;;;;;5104892;27;20189;-80
2022/10/06 12:48:25;;;;;;;11.27;1.60;;;18.20;99.90;;;;;;5124265;27;20095;-80
2022/10/06 12:50:58;;;;;;;4.50;0.50;;;16.70;99.90;;;;;;5117558;27;20133;-80
2022/10/06 12:53:31;;;;;;;7.20;1.00;;;16.80;99.90;;;;;;5128226;27;20710;-80
2022/10/06 12:56:03;;;;;;;8.37;1.17;;;16.80;99.90;;;;;;5122554;27;20050;-80
2022/10/06 12:58:31;;;;;;;6.45;1.20;;;16.80;99.90;;;;;;5121658;27;20031;-80
2022/10/06 13:01:15;;;;;;;5.10;1.02;;;17.10;99.90;;;;;;5126455;27;20090;-80
2022/10/06 13:03:46;;;;;;;5.57;1.10;;;17.00;99.90;;;;;;5122593;27;20019;-80
2022/10/06 13:06:11;;;;;;;7.93;0.93;;;17.10;99.90;;;;;;5144407;27;20406;-79
2022/10/06 13:08:38;;;;;;;9.45;0.88;;;17.10;99.90;;;;;;5122447;27;20033;-81
2022/10/06 13:11:26;;;;;;;6.43;1.00;;;17.20;99.90;;;;;;5140665;27;20038;-83
2022/10/06 13:14:00;;;;;;;10.10;1.20;;;17.20;99.90;;;;;;5122618;27;20407;-79